createdAt,value
2022-09-15T00:00:35.477Z,84.60
2022-09-15T00:03:02.934Z,84.14
2022-09-15T00:05:30.266Z,84.02
2022-09-15T00:07:57.447Z,84.19
2022-09-15T00:10:24.680Z,84.35
2022-09-15T00:12:51.969Z,84.03
2022-09-15T00:15:19.547Z,83.54
2022-09-15T00:17:52.081Z,83.11
2022-09-15T00:20:20.632Z,83.24
2022-09-15T00:22:48.452Z,83.18
2022-09-15T00:25:16.065Z,83.44
2022-09-15T00:27:43.204Z,83.39
2022-09-15T00:30:11.097Z,83.71
2022-09-15T00:32:38.489Z,83.76
2022-09-15T00:35:08.042Z,83.25
2022-09-15T00:37:35.207Z,83.54
2022-09-15T00:40:03.000Z,82.94
2022-09-15T00:42:30.377Z,83.51
2022-09-15T00:44:59.236Z,83.54
2022-09-15T00:47:36.405Z,83.21
2022-09-15T00:50:07.425Z,82.63
2022-09-15T00:52:44.306Z,82.65
2022-09-15T00:55:20.220Z,82.27
2022-09-15T00:57:52.730Z,82.69
2022-09-15T01:00:22.717Z,82.13
2022-09-15T01:02:50.676Z,82.37
2022-09-15T01:05:21.205Z,82.55
2022-09-15T01:07:59.287Z,82.20
2022-09-15T01:10:28.864Z,82.34
2022-09-15T01:13:00.301Z,82.62
2022-09-15T01:15:37.788Z,82.29
2022-09-15T01:18:15.782Z,81.78
2022-09-15T01:21:05.296Z,82.31
2022-09-15T01:24:22.931Z,82.09
2022-09-15T01:27:41.581Z,82.58
2022-09-15T01:30:13.275Z,82.08
2022-09-15T01:33:04.972Z,82.14
2022-09-15T01:35:56.386Z,82.64
2022-09-15T01:38:33.287Z,82.57
2022-09-15T01:41:07.413Z,82.81
2022-09-15T01:43:42.823Z,82.81
2022-09-15T01:46:14.466Z,82.24
2022-09-15T01:48:42.513Z,82.67
2022-09-15T01:51:10.256Z,82.58
2022-09-15T01:53:37.903Z,82.71
2022-09-15T01:56:08.659Z,82.44
2022-09-15T01:58:37.955Z,82.94
2022-09-15T02:01:10.200Z,82.82
2022-09-15T02:03:44.802Z,82.57
2022-09-15T02:06:19.638Z,83.15
2022-09-15T02:08:52.621Z,82.94
2022-09-15T02:11:28.154Z,83.29
2022-09-15T02:14:03.972Z,83.41
2022-09-15T02:16:35.447Z,82.85
2022-09-15T02:19:15.643Z,83.25
2022-09-15T02:21:54.243Z,83.10
2022-09-15T02:24:27.905Z,82.87
2022-09-15T02:26:57.833Z,83.14
2022-09-15T02:29:27.515Z,82.87
2022-09-15T02:32:03.690Z,83.23
2022-09-15T02:34:38.825Z,83.09
2022-09-15T02:37:06.799Z,83.07
2022-09-15T02:39:37.471Z,83.33
2022-09-15T02:42:05.028Z,82.82
2022-09-15T02:44:32.425Z,82.87
2022-09-15T02:47:02.079Z,83.11
2022-09-15T02:49:29.645Z,83.11
2022-09-15T02:51:58.170Z,82.96
2022-09-15T02:54:25.374Z,83.02
2022-09-15T02:56:52.544Z,82.97
2022-09-15T02:59:19.793Z,83.00
2022-09-15T03:01:47.033Z,83.20
2022-09-15T03:04:14.384Z,82.88
2022-09-15T03:06:41.572Z,82.80
2022-09-15T03:09:10.541Z,83.24
2022-09-15T03:11:37.758Z,83.59
2022-09-15T03:14:06.589Z,83.61
2022-09-15T03:16:35.555Z,83.97
2022-09-15T03:19:04.029Z,83.30
2022-09-15T03:21:31.677Z,83.45
2022-09-15T03:23:59.239Z,83.86
2022-09-15T03:26:27.850Z,83.13
2022-09-15T03:28:55.091Z,83.22
2022-09-15T03:31:22.609Z,83.71
2022-09-15T03:33:49.882Z,83.46
2022-09-15T03:36:17.102Z,83.45
2022-09-15T03:38:44.338Z,83.25
2022-09-15T03:41:12.769Z,82.97
2022-09-15T03:43:41.745Z,83.14
2022-09-15T03:46:11.723Z,83.31
2022-09-15T03:48:40.632Z,83.23
2022-09-15T03:51:10.650Z,83.26
2022-09-15T03:53:40.102Z,83.32
2022-09-15T03:56:09.046Z,83.13
2022-09-15T03:58:36.203Z,83.26
2022-09-15T04:01:05.413Z,82.93
2022-09-15T04:03:33.461Z,83.14
2022-09-15T04:06:00.675Z,83.29
2022-09-15T04:08:28.076Z,83.50
2022-09-15T04:10:55.383Z,83.15
2022-09-15T04:13:27.951Z,83.05
2022-09-15T04:16:01.165Z,82.73
2022-09-15T04:18:30.355Z,82.97
2022-09-15T04:20:59.765Z,83.20
2022-09-15T04:23:27.238Z,82.96
2022-09-15T04:25:56.089Z,82.89
2022-09-15T04:28:23.414Z,82.79
2022-09-15T04:30:50.578Z,83.19
2022-09-15T04:33:17.935Z,83.39
2022-09-15T04:35:46.690Z,83.35
2022-09-15T04:38:13.937Z,83.07
2022-09-15T04:40:41.086Z,83.10
2022-09-15T04:43:08.496Z,83.67
2022-09-15T04:45:35.902Z,83.13
2022-09-15T04:48:03.227Z,83.54
2022-09-15T04:50:32.351Z,83.21
2022-09-15T04:53:03.923Z,83.67
2022-09-15T04:55:32.356Z,83.48
2022-09-15T04:57:59.866Z,83.02
2022-09-15T05:00:27.428Z,82.95
2022-09-15T05:02:54.875Z,83.01
2022-09-15T05:05:22.211Z,82.98
2022-09-15T05:07:49.714Z,82.97
2022-09-15T05:10:18.636Z,82.95
2022-09-15T05:12:46.278Z,82.78
2022-09-15T05:15:13.599Z,82.46
2022-09-15T05:17:40.982Z,82.64
2022-09-15T05:20:08.773Z,82.96
2022-09-15T05:22:40.895Z,83.16
2022-09-15T05:25:09.572Z,83.11
2022-09-15T05:27:39.661Z,83.01
2022-09-15T05:30:35.779Z,83.13
2022-09-15T05:32:56.358Z,83.13
2022-09-15T05:35:23.824Z,83.51
2022-09-15T05:37:50.970Z,83.18
2022-09-15T05:40:20.844Z,83.49
2022-09-15T05:42:49.445Z,83.67
2022-09-15T05:45:16.828Z,83.61
2022-09-15T05:47:44.252Z,83.71
2022-09-15T05:50:11.576Z,83.65
2022-09-15T05:52:38.841Z,83.41
2022-09-15T05:55:06.471Z,83.49
2022-09-15T05:57:33.593Z,83.48
2022-09-15T06:00:02.997Z,83.42
2022-09-15T06:02:39.253Z,83.07
2022-09-15T06:05:08.098Z,83.43
2022-09-15T06:07:35.337Z,83.58
2022-09-15T06:10:02.773Z,83.64
2022-09-15T06:12:30.243Z,83.25
2022-09-15T06:14:57.673Z,83.16
2022-09-15T06:17:26.550Z,82.99
2022-09-15T06:19:53.801Z,82.93
2022-09-15T06:22:21.025Z,83.39
2022-09-15T06:24:48.455Z,83.22
2022-09-15T06:27:15.886Z,83.24
2022-09-15T06:29:43.107Z,83.26
2022-09-15T06:32:10.353Z,82.81
2022-09-15T06:34:39.076Z,83.37
2022-09-15T06:37:06.261Z,82.70
2022-09-15T06:39:33.499Z,83.20
2022-09-15T06:42:03.249Z,82.90
2022-09-15T06:44:32.128Z,83.15
2022-09-15T06:46:59.437Z,82.92
2022-09-15T06:49:26.961Z,82.88
2022-09-15T06:51:56.532Z,83.38
2022-09-15T06:54:24.060Z,83.20
2022-09-15T06:56:51.308Z,83.17
2022-09-15T06:59:18.823Z,83.26
2022-09-15T07:01:46.239Z,83.50
2022-09-15T07:04:13.509Z,83.43
2022-09-15T07:06:40.820Z,83.56
2022-09-15T07:09:10.994Z,83.47
2022-09-15T07:11:38.300Z,83.70
2022-09-15T07:14:05.522Z,83.55
2022-09-15T07:16:33.076Z,83.36
2022-09-15T07:19:02.517Z,83.48
2022-09-15T07:21:29.867Z,83.57
2022-09-15T07:23:58.196Z,83.52
2022-09-15T07:26:28.046Z,83.66
2022-09-15T07:28:59.307Z,83.45
2022-09-15T07:31:29.751Z,83.19
2022-09-15T07:33:57.334Z,82.90
2022-09-15T07:36:24.610Z,83.02
2022-09-15T07:38:52.043Z,83.05
2022-09-15T07:41:21.215Z,83.11
2022-09-15T07:43:51.417Z,82.54
2022-09-15T07:46:19.403Z,82.80
2022-09-15T07:48:47.629Z,82.85
2022-09-15T07:51:15.928Z,83.37
2022-09-15T07:53:43.691Z,83.16
2022-09-15T07:56:11.104Z,83.37
2022-09-15T07:58:38.645Z,83.21
2022-09-15T08:01:11.308Z,82.99
2022-09-15T08:03:40.345Z,83.04
2022-09-15T08:06:08.621Z,83.11
2022-09-15T08:08:37.508Z,82.74
2022-09-15T08:11:07.084Z,82.90
2022-09-15T08:13:34.637Z,83.00
2022-09-15T08:16:11.633Z,82.93
2022-09-15T08:18:42.158Z,83.12
2022-09-15T08:21:11.681Z,82.37
2022-09-15T08:23:38.905Z,82.58
2022-09-15T08:26:10.644Z,82.38
2022-09-15T08:28:40.762Z,82.18
2022-09-15T08:31:11.680Z,82.34
2022-09-15T08:33:44.568Z,82.47
2022-09-15T08:36:12.891Z,82.07
2022-09-15T08:38:41.712Z,82.39
2022-09-15T08:41:18.794Z,82.39
2022-09-15T08:43:51.646Z,82.24
2022-09-15T08:46:27.170Z,82.59
2022-09-15T08:49:03.100Z,82.45
2022-09-15T08:51:37.090Z,81.78
2022-09-15T08:54:11.372Z,81.95
2022-09-15T08:56:41.713Z,82.17
2022-09-15T08:59:13.177Z,82.30
2022-09-15T09:01:58.281Z,82.07
2022-09-15T09:04:41.569Z,81.75
2022-09-15T09:07:24.226Z,81.77
2022-09-15T09:09:57.398Z,81.59
2022-09-15T09:12:44.427Z,81.73
2022-09-15T09:15:24.538Z,82.01
2022-09-15T09:18:11.086Z,81.71
2022-09-15T09:20:49.011Z,81.12
2022-09-15T09:23:20.910Z,80.84
2022-09-15T09:25:49.953Z,81.53
2022-09-15T09:28:28.233Z,81.78
2022-09-15T09:31:00.320Z,81.77
2022-09-15T09:33:38.601Z,81.71
2022-09-15T09:36:08.593Z,82.03
2022-09-15T09:38:38.468Z,81.94
2022-09-15T09:41:09.300Z,81.90
2022-09-15T09:43:37.134Z,82.18
2022-09-15T09:46:11.600Z,81.80
2022-09-15T09:48:43.544Z,81.56
2022-09-15T09:51:31.261Z,81.79
2022-09-15T09:54:04.704Z,82.08
2022-09-15T09:56:32.021Z,81.94
2022-09-15T09:58:59.291Z,81.89
2022-09-15T10:01:26.885Z,81.58
2022-09-15T10:04:17.165Z,81.85
2022-09-15T10:06:44.436Z,81.75
2022-09-15T10:09:17.030Z,81.58
2022-09-15T10:11:46.815Z,81.47
2022-09-15T10:14:22.318Z,81.52
2022-09-15T10:17:08.401Z,81.20
2022-09-15T10:19:49.615Z,81.36
2022-09-15T10:22:30.112Z,81.01
2022-09-15T10:24:59.806Z,81.25
2022-09-15T10:27:30.535Z,81.39
2022-09-15T10:30:17.153Z,81.29
2022-09-15T10:32:44.416Z,81.26
2022-09-15T10:35:18.271Z,81.50
2022-09-15T10:37:59.401Z,81.42
2022-09-15T10:40:34.592Z,81.35
2022-09-15T10:43:17.062Z,81.20
2022-09-15T10:45:49.197Z,81.40
2022-09-15T10:48:28.101Z,81.31
2022-09-15T10:51:04.116Z,80.81
2022-09-15T10:53:57.583Z,80.91
2022-09-15T10:56:29.728Z,81.11
2022-09-15T10:59:11.804Z,80.72
2022-09-15T11:02:10.686Z,80.23
2022-09-15T11:04:52.370Z,80.32
2022-09-15T11:07:32.021Z,80.25
2022-09-15T11:10:06.657Z,80.24
2022-09-15T11:12:49.138Z,80.29
2022-09-15T11:15:33.628Z,80.66
2022-09-15T11:18:25.804Z,80.67
2022-09-15T11:21:11.169Z,80.71
2022-09-15T11:23:42.554Z,80.43
2022-09-15T11:26:17.349Z,80.54
2022-09-15T11:28:49.763Z,80.27
2022-09-15T11:31:22.113Z,80.96
2022-09-15T11:33:55.389Z,80.86
2022-09-15T11:36:32.632Z,81.10
2022-09-15T11:39:24.041Z,81.13
2022-09-15T11:41:59.782Z,80.86
2022-09-15T11:44:32.406Z,81.25
2022-09-15T11:47:14.289Z,81.59
2022-09-15T11:49:46.501Z,81.44
2022-09-15T11:52:39.759Z,81.44
2022-09-15T11:55:21.939Z,81.46
2022-09-15T11:57:57.479Z,81.43
2022-09-15T12:00:24.700Z,81.12
2022-09-15T12:03:00.475Z,81.14
2022-09-15T12:05:32.123Z,80.85
2022-09-15T12:08:05.052Z,80.69
2022-09-15T12:10:39.871Z,79.81
2022-09-15T12:13:15.518Z,79.21
2022-09-15T12:15:43.706Z,78.17
2022-09-15T12:18:37.741Z,77.36
2022-09-15T12:21:14.193Z,77.41
2022-09-15T12:23:45.139Z,77.34
2022-09-15T12:26:17.553Z,77.67
2022-09-15T12:28:57.481Z,77.32
2022-09-15T12:31:29.964Z,76.90
2022-09-15T12:34:05.709Z,76.69
2022-09-15T12:36:53.029Z,76.33
2022-09-15T12:39:25.606Z,75.98
2022-09-15T12:41:56.546Z,76.18
2022-09-15T12:44:33.614Z,75.99
2022-09-15T12:47:04.212Z,76.15
2022-09-15T12:49:35.225Z,75.99
2022-09-15T12:52:07.902Z,76.01
2022-09-15T12:54:39.256Z,75.80
2022-09-15T12:57:19.210Z,75.57
2022-09-15T12:59:46.852Z,75.82
2022-09-15T13:02:44.953Z,75.74
2022-09-15T13:05:14.493Z,75.89
2022-09-15T13:07:56.925Z,75.97
2022-09-15T13:10:34.829Z,75.67
2022-09-15T13:13:22.939Z,75.61
2022-09-15T13:15:53.726Z,75.77
2022-09-15T13:18:22.036Z,75.93
2022-09-15T13:20:54.909Z,75.39
2022-09-15T13:23:25.774Z,75.46
2022-09-15T13:25:56.902Z,75.59
2022-09-15T13:28:27.132Z,75.57
2022-09-15T13:31:07.690Z,75.81
2022-09-15T13:40:13.167Z,75.77
2022-09-15T13:42:55.072Z,75.53
2022-09-15T13:45:46.096Z,75.52
2022-09-15T13:48:33.880Z,75.77
2022-09-15T13:51:06.174Z,75.58
2022-09-15T13:53:48.401Z,75.80
2022-09-15T13:56:22.621Z,75.50
2022-09-15T13:58:56.554Z,75.36
2022-09-15T14:01:30.307Z,75.15
2022-09-15T14:04:02.241Z,75.15
2022-09-15T14:06:35.704Z,75.09
2022-09-15T14:09:08.793Z,75.21
2022-09-15T14:11:37.990Z,75.12
2022-09-15T14:14:10.499Z,74.73
2022-09-15T14:16:39.888Z,74.34
2022-09-15T14:19:30.635Z,74.43
2022-09-15T14:21:58.829Z,73.92
2022-09-15T14:24:29.689Z,73.80
2022-09-15T14:27:00.271Z,74.02
2022-09-15T14:29:27.881Z,73.80
2022-09-15T14:32:01.913Z,74.22
2022-09-15T14:34:32.353Z,73.61
2022-09-15T14:37:03.448Z,73.37
2022-09-15T14:39:30.866Z,73.29
2022-09-15T14:47:28.053Z,72.17
2022-09-15T14:50:06.805Z,72.57
2022-09-15T14:52:36.046Z,72.80
2022-09-15T14:55:08.191Z,72.41
2022-09-15T14:57:39.620Z,72.36
2022-09-15T15:00:12.343Z,72.49
2022-09-15T15:02:56.693Z,72.32
2022-09-15T15:05:27.546Z,72.41
2022-09-15T15:07:55.885Z,72.07
2022-09-15T15:10:25.962Z,71.86
2022-09-15T15:12:59.257Z,71.86
2022-09-15T15:15:27.400Z,72.20
2022-09-15T15:17:56.215Z,72.21
2022-09-15T15:20:25.714Z,72.07
2022-09-15T15:23:16.827Z,72.38
2022-09-15T15:25:44.670Z,72.71
2022-09-15T15:28:30.779Z,72.88
2022-09-15T15:31:13.673Z,73.04
2022-09-15T15:33:48.768Z,73.16
2022-09-15T15:36:21.983Z,73.14
2022-09-15T15:38:52.455Z,73.07
2022-09-15T15:41:22.298Z,72.78
2022-09-15T15:44:03.237Z,73.19
2022-09-15T15:46:48.138Z,73.40
2022-09-15T15:49:17.422Z,73.61
2022-09-15T15:51:44.939Z,73.67
2022-09-15T15:54:12.215Z,73.55
2022-09-15T15:56:40.076Z,73.83
2022-09-15T15:59:07.260Z,73.68
2022-09-15T16:01:34.428Z,74.01
2022-09-15T16:04:01.789Z,74.26
2022-09-15T16:06:31.200Z,74.27
2022-09-15T16:08:58.812Z,74.59
2022-09-15T16:11:26.495Z,74.38
2022-09-15T16:13:53.998Z,74.71
2022-09-15T16:16:23.686Z,75.28
2022-09-15T16:18:51.123Z,75.40
2022-09-15T16:21:20.638Z,75.62
2022-09-15T16:23:49.212Z,75.87
2022-09-15T16:26:20.737Z,76.67
2022-09-15T16:28:47.945Z,76.62
2022-09-15T16:31:15.966Z,76.74
2022-09-15T16:33:44.951Z,76.84
2022-09-15T16:36:14.673Z,76.81
2022-09-15T16:38:42.837Z,76.85
2022-09-15T16:41:19.285Z,76.97
2022-09-15T16:43:47.211Z,77.10
2022-09-15T16:46:26.414Z,77.52
2022-09-15T16:48:54.399Z,77.35
2022-09-15T16:51:29.865Z,76.87
2022-09-15T16:53:58.709Z,77.03
2022-09-15T16:56:28.517Z,76.61
2022-09-15T16:59:00.245Z,76.98
2022-09-15T17:01:28.583Z,76.91
2022-09-15T17:03:55.961Z,76.79
2022-09-15T17:06:23.191Z,76.99
2022-09-15T17:08:50.385Z,77.33
2022-09-15T17:11:20.026Z,77.36
2022-09-15T17:13:48.668Z,78.05
2022-09-15T17:16:19.379Z,77.77
2022-09-15T17:18:47.025Z,77.65
2022-09-15T17:21:16.501Z,78.44
2022-09-15T17:23:46.104Z,78.57
2022-09-15T17:26:15.065Z,78.31
2022-09-15T17:28:42.589Z,78.92
2022-09-15T17:31:15.138Z,79.03
2022-09-15T17:33:46.219Z,79.05
2022-09-15T17:39:33.745Z,79.69
2022-09-15T17:44:30.599Z,79.52
2022-09-15T17:47:03.955Z,79.56
2022-09-15T17:49:31.124Z,79.62
2022-09-15T17:51:58.375Z,80.17
2022-09-15T17:54:25.858Z,79.93
2022-09-15T17:56:53.432Z,80.19
2022-09-15T17:59:20.576Z,79.98
2022-09-15T18:01:48.804Z,80.15
2022-09-15T18:04:17.551Z,80.07
2022-09-15T18:06:45.634Z,80.45
2022-09-15T18:09:14.867Z,80.31
2022-09-15T18:11:42.085Z,80.75
2022-09-15T18:14:09.605Z,80.75
2022-09-15T18:16:37.184Z,80.84
2022-09-15T18:19:04.347Z,80.72
2022-09-15T18:21:32.952Z,80.61
2022-09-15T18:24:00.097Z,80.92
2022-09-15T18:26:27.362Z,81.22
2022-09-15T18:28:54.841Z,81.23
2022-09-15T18:31:22.399Z,81.15
2022-09-15T18:33:49.537Z,80.97
2022-09-15T18:36:16.856Z,81.64
2022-09-15T18:38:45.541Z,81.48
2022-09-15T18:41:13.143Z,81.25
2022-09-15T18:43:40.421Z,81.36
2022-09-15T18:46:08.066Z,81.00
2022-09-15T18:48:35.362Z,81.05
2022-09-15T18:51:07.515Z,81.48
2022-09-15T18:53:35.224Z,80.77
2022-09-15T18:56:09.718Z,80.60
2022-09-15T18:58:37.529Z,80.88
2022-09-15T19:01:06.076Z,80.87
2022-09-15T19:03:33.945Z,81.22
2022-09-15T19:06:03.259Z,81.27
2022-09-15T19:08:34.160Z,81.80
2022-09-15T19:11:05.558Z,81.32
2022-09-15T19:13:35.809Z,81.37
2022-09-15T19:16:04.747Z,81.42
2022-09-15T19:18:32.365Z,81.09
2022-09-15T19:21:04.731Z,81.02
2022-09-15T19:23:32.015Z,81.44
2022-09-15T19:26:03.741Z,81.58
2022-09-15T19:28:31.287Z,81.52
2022-09-15T19:30:59.488Z,81.38
2022-09-15T19:33:27.289Z,81.36
2022-09-15T19:36:10.906Z,81.29
2022-09-15T19:38:42.235Z,81.22
2022-09-15T19:41:13.327Z,81.22
2022-09-15T19:43:43.991Z,80.93
2022-09-15T19:46:16.350Z,80.90
2022-09-15T19:48:47.879Z,81.08
2022-09-15T19:51:17.923Z,80.76
2022-09-15T19:53:45.833Z,81.16
2022-09-15T19:56:16.075Z,81.42
2022-09-15T19:58:43.614Z,81.03
2022-09-15T20:01:11.153Z,81.49
2022-09-15T20:06:27.711Z,81.44
2022-09-15T20:09:00.724Z,81.60
2022-09-15T20:11:30.455Z,82.08
2022-09-15T20:13:57.970Z,82.74
2022-09-15T20:16:25.932Z,83.29
2022-09-15T20:18:54.694Z,83.15
2022-09-15T20:21:45.752Z,83.53
2022-09-15T20:24:12.275Z,83.52
2022-09-15T20:26:41.264Z,83.07
2022-09-15T20:29:08.624Z,83.40
2022-09-15T20:31:36.057Z,82.41
2022-09-15T20:34:03.415Z,81.95
2022-09-15T20:36:36.599Z,81.31
2022-09-15T20:39:08.868Z,81.45
2022-09-15T20:41:36.155Z,80.64
2022-09-15T20:44:06.230Z,80.96
2022-09-15T20:46:33.678Z,80.99
2022-09-15T20:49:01.568Z,80.23
2022-09-15T20:51:31.770Z,80.72
2022-09-15T20:54:00.588Z,80.76
2022-09-15T20:56:29.981Z,81.14
2022-09-15T20:58:58.778Z,80.95
2022-09-15T21:01:29.069Z,81.06
2022-09-15T21:03:56.660Z,81.09
2022-09-15T21:06:26.459Z,81.30
2022-09-15T21:08:55.691Z,81.00
2022-09-15T21:11:24.158Z,80.85
2022-09-15T21:13:51.480Z,80.71
2022-09-15T21:16:21.551Z,80.91
2022-09-15T21:18:51.138Z,80.98
2022-09-15T21:21:21.076Z,80.69
2022-09-15T21:23:49.624Z,80.83
2022-09-15T21:26:18.209Z,80.78
2022-09-15T21:28:45.887Z,81.20
2022-09-15T21:31:15.206Z,80.81
2022-09-15T21:33:42.896Z,81.20
2022-09-15T21:36:14.719Z,80.77
2022-09-15T21:38:43.973Z,80.97
2022-09-15T21:41:13.871Z,80.79
2022-09-15T21:43:43.250Z,80.79
2022-09-15T21:46:13.210Z,80.61
2022-09-15T21:48:41.371Z,80.56
2022-09-15T21:51:12.041Z,80.79
2022-09-15T21:53:39.600Z,80.73
2022-09-15T21:56:12.166Z,80.70
2022-09-15T21:58:43.072Z,80.77
2022-09-15T22:01:12.878Z,80.71
2022-09-15T22:03:43.936Z,80.68
2022-09-15T22:06:13.478Z,80.60
2022-09-15T22:08:41.255Z,80.49
2022-09-15T22:11:09.688Z,81.04
2022-09-15T22:13:39.247Z,80.97
2022-09-15T22:16:08.738Z,81.01
2022-09-15T22:18:37.019Z,80.67
2022-09-15T22:21:06.964Z,81.09
2022-09-15T22:23:36.457Z,80.80
2022-09-15T22:26:05.252Z,81.20
2022-09-15T22:28:32.672Z,81.45
2022-09-15T22:31:01.176Z,81.36
2022-09-15T22:33:28.895Z,81.25
2022-09-15T22:35:57.148Z,80.93
2022-09-15T22:38:25.089Z,81.17
2022-09-15T22:40:54.068Z,81.31
2022-09-15T22:43:21.464Z,80.70
2022-09-15T22:45:48.734Z,81.10
2022-09-15T22:48:16.020Z,81.23
2022-09-15T22:50:45.347Z,81.19
2022-09-15T22:53:13.196Z,81.22
2022-09-15T22:55:40.674Z,81.07
2022-09-15T22:58:09.523Z,81.10
2022-09-15T23:00:38.119Z,81.25
2022-09-15T23:03:05.651Z,81.43
2022-09-15T23:05:32.862Z,81.56
2022-09-15T23:08:00.345Z,81.59
2022-09-15T23:10:28.307Z,81.44
2022-09-15T23:12:56.057Z,81.66
2022-09-15T23:15:24.646Z,81.39
2022-09-15T23:17:51.985Z,81.37
2022-09-15T23:20:19.299Z,81.35
2022-09-15T23:22:46.563Z,81.58
2022-09-15T23:25:13.822Z,81.44
2022-09-15T23:27:41.171Z,81.66
2022-09-15T23:30:09.742Z,81.71
2022-09-15T23:32:38.453Z,81.50
2022-09-15T23:35:06.616Z,81.46
2022-09-15T23:37:33.906Z,81.31
2022-09-15T23:40:01.482Z,81.50
2022-09-15T23:42:30.095Z,81.54
2022-09-15T23:44:57.301Z,81.37
2022-09-15T23:47:24.756Z,81.59
2022-09-15T23:49:53.443Z,82.10
2022-09-15T23:52:20.866Z,82.57
2022-09-15T23:54:48.108Z,82.96
2022-09-15T23:57:15.303Z,83.55
2022-09-15T23:59:42.424Z,83.48
